sensor_id;sensor_type;location;lat;lon;timestamp;P1;durP1;ratioP1;P2;durP2;ratioP2
66741;SDS011;53654;54.152;19.432;2024-02-21T00:02:22;13.90;;;7.20;;
66741;SDS011;53654;54.152;19.432;2024-02-21T00:04:50;13.30;;;6.90;;
66741;SDS011;53654;54.152;19.432;2024-02-21T00:07:18;13.20;;;7.30;;
66741;SDS011;53654;54.152;19.432;2024-02-21T00:09:46;13.20;;;7.00;;
66741;SDS011;53654;54.152;19.432;2024-02-21T00:12:14;14.00;;;7.10;;
66741;SDS011;53654;54.152;19.432;2024-02-21T00:14:42;13.90;;;7.20;;
66741;SDS011;53654;54.152;19.432;2024-02-21T00:17:11;13.70;;;7.00;;
66741;SDS011;53654;54.152;19.432;2024-02-21T00:19:39;16.10;;;7.20;;
66741;SDS011;53654;54.152;19.432;2024-02-21T00:22:07;13.80;;;7.40;;
66741;SDS011;53654;54.152;19.432;2024-02-21T00:24:36;14.10;;;7.30;;
66741;SDS011;53654;54.152;19.432;2024-02-21T00:27:04;15.00;;;7.30;;
66741;SDS011;53654;54.152;19.432;2024-02-21T00:29:33;13.70;;;7.30;;
66741;SDS011;53654;54.152;19.432;2024-02-21T00:32:02;14.10;;;6.50;;
66741;SDS011;53654;54.152;19.432;2024-02-21T00:34:30;14.50;;;7.30;;
66741;SDS011;53654;54.152;19.432;2024-02-21T00:36:58;15.30;;;6.80;;
66741;SDS011;53654;54.152;19.432;2024-02-21T00:39:26;13.10;;;6.80;;
66741;SDS011;53654;54.152;19.432;2024-02-21T00:41:54;14.60;;;6.80;;
66741;SDS011;53654;54.152;19.432;2024-02-21T00:44:22;14.70;;;7.20;;
66741;SDS011;53654;54.152;19.432;2024-02-21T00:46:50;15.40;;;6.60;;
66741;SDS011;53654;54.152;19.432;2024-02-21T00:49:20;13.80;;;6.60;;
66741;SDS011;53654;54.152;19.432;2024-02-21T00:51:48;14.60;;;6.80;;
66741;SDS011;53654;54.152;19.432;2024-02-21T00:54:16;11.60;;;6.50;;
66741;SDS011;53654;54.152;19.432;2024-02-21T00:56:44;13.20;;;6.60;;
66741;SDS011;53654;54.152;19.432;2024-02-21T00:59:12;13.20;;;6.10;;
66741;SDS011;53654;54.152;19.432;2024-02-21T01:01:40;13.50;;;6.50;;
66741;SDS011;53654;54.152;19.432;2024-02-21T01:04:11;14.40;;;6.30;;
66741;SDS011;53654;54.152;19.432;2024-02-21T01:06:39;15.70;;;6.50;;
66741;SDS011;53654;54.152;19.432;2024-02-21T01:09:10;13.00;;;5.90;;
66741;SDS011;53654;54.152;19.432;2024-02-21T01:11:39;15.10;;;6.50;;
66741;SDS011;53654;54.152;19.432;2024-02-21T01:14:07;12.90;;;6.90;;
66741;SDS011;53654;54.152;19.432;2024-02-21T01:16:35;12.20;;;6.20;;
66741;SDS011;53654;54.152;19.432;2024-02-21T01:19:03;12.70;;;6.30;;
66741;SDS011;53654;54.152;19.432;2024-02-21T01:21:31;14.20;;;6.30;;
66741;SDS011;53654;54.152;19.432;2024-02-21T01:24:00;11.40;;;5.50;;
66741;SDS011;53654;54.152;19.432;2024-02-21T01:26:29;11.00;;;6.00;;
66741;SDS011;53654;54.152;19.432;2024-02-21T01:28:57;14.10;;;5.70;;
66741;SDS011;53654;54.152;19.432;2024-02-21T01:31:25;10.70;;;5.50;;
66741;SDS011;53654;54.152;19.432;2024-02-21T01:33:54;13.90;;;5.90;;
66741;SDS011;53654;54.152;19.432;2024-02-21T01:36:22;11.60;;;5.30;;
66741;SDS011;53654;54.152;19.432;2024-02-21T01:38:51;9.90;;;5.10;;
66741;SDS011;53654;54.152;19.432;2024-02-21T01:41:19;13.70;;;5.50;;
66741;SDS011;53654;54.152;19.432;2024-02-21T01:43:47;15.40;;;5.90;;
66741;SDS011;53654;54.152;19.432;2024-02-21T01:46:15;13.90;;;5.40;;
66741;SDS011;53654;54.152;19.432;2024-02-21T01:48:43;13.00;;;5.50;;
66741;SDS011;53654;54.152;19.432;2024-02-21T01:51:14;12.90;;;5.10;;
66741;SDS011;53654;54.152;19.432;2024-02-21T01:53:43;13.90;;;5.60;;
66741;SDS011;53654;54.152;19.432;2024-02-21T01:56:12;10.70;;;4.90;;
66741;SDS011;53654;54.152;19.432;2024-02-21T01:58:42;11.30;;;5.10;;
66741;SDS011;53654;54.152;19.432;2024-02-21T02:01:10;12.00;;;4.90;;
66741;SDS011;53654;54.152;19.432;2024-02-21T02:03:39;13.30;;;5.20;;
66741;SDS011;53654;54.152;19.432;2024-02-21T02:06:07;11.30;;;5.30;;
66741;SDS011;53654;54.152;19.432;2024-02-21T02:08:36;12.30;;;5.40;;
66741;SDS011;53654;54.152;19.432;2024-02-21T02:11:05;14.10;;;5.60;;
66741;SDS011;53654;54.152;19.432;2024-02-21T02:13:34;12.30;;;5.50;;
66741;SDS011;53654;54.152;19.432;2024-02-21T02:16:03;12.20;;;5.70;;
66741;SDS011;53654;54.152;19.432;2024-02-21T02:18:31;13.40;;;5.90;;
66741;SDS011;53654;54.152;19.432;2024-02-21T02:21:00;15.00;;;5.90;;
66741;SDS011;53654;54.152;19.432;2024-02-21T02:23:31;13.40;;;5.60;;
66741;SDS011;53654;54.152;19.432;2024-02-21T02:26:00;12.00;;;5.50;;
66741;SDS011;53654;54.152;19.432;2024-02-21T02:28:31;12.30;;;5.20;;
66741;SDS011;53654;54.152;19.432;2024-02-21T02:30:59;14.40;;;5.70;;
66741;SDS011;53654;54.152;19.432;2024-02-21T02:33:27;13.40;;;5.60;;
66741;SDS011;53654;54.152;19.432;2024-02-21T02:35:56;14.40;;;8.80;;
66741;SDS011;53654;54.152;19.432;2024-02-21T02:38:24;14.70;;;5.70;;
66741;SDS011;53654;54.152;19.432;2024-02-21T02:40:52;12.60;;;5.60;;
66741;SDS011;53654;54.152;19.432;2024-02-21T02:43:21;14.40;;;5.80;;
66741;SDS011;53654;54.152;19.432;2024-02-21T02:45:49;14.00;;;5.60;;
66741;SDS011;53654;54.152;19.432;2024-02-21T02:48:18;14.80;;;5.20;;
66741;SDS011;53654;54.152;19.432;2024-02-21T02:50:47;17.00;;;6.00;;
66741;SDS011;53654;54.152;19.432;2024-02-21T02:53:17;16.70;;;6.00;;
66741;SDS011;53654;54.152;19.432;2024-02-21T02:55:45;15.50;;;6.10;;
66741;SDS011;53654;54.152;19.432;2024-02-21T02:58:13;16.10;;;5.70;;
66741;SDS011;53654;54.152;19.432;2024-02-21T03:00:42;16.50;;;6.10;;
66741;SDS011;53654;54.152;19.432;2024-02-21T03:03:10;16.00;;;6.00;;
66741;SDS011;53654;54.152;19.432;2024-02-21T03:05:38;19.10;;;6.40;;
66741;SDS011;53654;54.152;19.432;2024-02-21T03:08:06;15.50;;;6.20;;
66741;SDS011;53654;54.152;19.432;2024-02-21T03:10:35;15.70;;;5.80;;
66741;SDS011;53654;54.152;19.432;2024-02-21T03:13:04;13.40;;;5.80;;
66741;SDS011;53654;54.152;19.432;2024-02-21T03:15:32;14.70;;;5.90;;
66741;SDS011;53654;54.152;19.432;2024-02-21T03:18:00;16.20;;;5.80;;
66741;SDS011;53654;54.152;19.432;2024-02-21T03:20:29;13.50;;;5.40;;
66741;SDS011;53654;54.152;19.432;2024-02-21T03:22:57;15.10;;;5.80;;
66741;SDS011;53654;54.152;19.432;2024-02-21T03:25:25;16.10;;;6.00;;
66741;SDS011;53654;54.152;19.432;2024-02-21T03:27:54;13.40;;;5.50;;
66741;SDS011;53654;54.152;19.432;2024-02-21T03:30:22;16.20;;;6.00;;
66741;SDS011;53654;54.152;19.432;2024-02-21T03:32:50;13.80;;;5.60;;
66741;SDS011;53654;54.152;19.432;2024-02-21T03:35:19;15.70;;;5.90;;
66741;SDS011;53654;54.152;19.432;2024-02-21T03:37:47;15.10;;;5.80;;
66741;SDS011;53654;54.152;19.432;2024-02-21T03:40:15;16.70;;;5.70;;
66741;SDS011;53654;54.152;19.432;2024-02-21T03:42:43;17.00;;;6.00;;
66741;SDS011;53654;54.152;19.432;2024-02-21T03:45:12;18.90;;;6.20;;
66741;SDS011;53654;54.152;19.432;2024-02-21T03:47:40;16.90;;;6.50;;
66741;SDS011;53654;54.152;19.432;2024-02-21T03:50:08;15.00;;;5.70;;
66741;SDS011;53654;54.152;19.432;2024-02-21T03:52:37;17.80;;;5.90;;
66741;SDS011;53654;54.152;19.432;2024-02-21T03:55:06;17.20;;;6.40;;
66741;SDS011;53654;54.152;19.432;2024-02-21T03:57:36;17.10;;;6.10;;
66741;SDS011;53654;54.152;19.432;2024-02-21T04:00:04;16.30;;;5.90;;
66741;SDS011;53654;54.152;19.432;2024-02-21T04:02:39;16.90;;;6.00;;
66741;SDS011;53654;54.152;19.432;2024-02-21T04:05:07;16.00;;;5.70;;
66741;SDS011;53654;54.152;19.432;2024-02-21T04:07:39;17.10;;;6.10;;
66741;SDS011;53654;54.152;19.432;2024-02-21T04:10:08;18.00;;;6.30;;
66741;SDS011;53654;54.152;19.432;2024-02-21T04:12:36;15.50;;;5.70;;
66741;SDS011;53654;54.152;19.432;2024-02-21T04:15:06;16.50;;;6.00;;
66741;SDS011;53654;54.152;19.432;2024-02-21T04:17:35;14.00;;;6.10;;
66741;SDS011;53654;54.152;19.432;2024-02-21T04:20:04;18.00;;;6.80;;
66741;SDS011;53654;54.152;19.432;2024-02-21T04:22:34;14.50;;;5.90;;
66741;SDS011;53654;54.152;19.432;2024-02-21T04:25:03;15.40;;;6.10;;
66741;SDS011;53654;54.152;19.432;2024-02-21T04:27:31;16.30;;;6.30;;
66741;SDS011;53654;54.152;19.432;2024-02-21T04:30:00;19.40;;;5.90;;
66741;SDS011;53654;54.152;19.432;2024-02-21T04:32:28;14.80;;;6.10;;
66741;SDS011;53654;54.152;19.432;2024-02-21T04:34:56;16.10;;;6.20;;
66741;SDS011;53654;54.152;19.432;2024-02-21T04:37:25;16.90;;;6.30;;
66741;SDS011;53654;54.152;19.432;2024-02-21T04:39:53;16.00;;;6.40;;
66741;SDS011;53654;54.152;19.432;2024-02-21T04:42:21;17.50;;;6.20;;
66741;SDS011;53654;54.152;19.432;2024-02-21T04:44:49;16.40;;;6.30;;
66741;SDS011;53654;54.152;19.432;2024-02-21T04:47:18;17.80;;;7.10;;
66741;SDS011;53654;54.152;19.432;2024-02-21T04:49:47;17.80;;;6.60;;
66741;SDS011;53654;54.152;19.432;2024-02-21T04:52:16;18.60;;;6.50;;
66741;SDS011;53654;54.152;19.432;2024-02-21T04:54:44;17.50;;;6.90;;
66741;SDS011;53654;54.152;19.432;2024-02-21T04:57:12;18.90;;;7.20;;
66741;SDS011;53654;54.152;19.432;2024-02-21T04:59:45;19.30;;;7.10;;
66741;SDS011;53654;54.152;19.432;2024-02-21T05:02:14;17.20;;;7.10;;
66741;SDS011;53654;54.152;19.432;2024-02-21T05:04:43;19.80;;;7.10;;
66741;SDS011;53654;54.152;19.432;2024-02-21T05:07:12;16.20;;;7.40;;
66741;SDS011;53654;54.152;19.432;2024-02-21T05:09:41;17.40;;;7.20;;
66741;SDS011;53654;54.152;19.432;2024-02-21T05:12:10;21.80;;;7.90;;
66741;SDS011;53654;54.152;19.432;2024-02-21T05:14:38;18.00;;;7.60;;
66741;SDS011;53654;54.152;19.432;2024-02-21T05:17:06;19.30;;;8.00;;
66741;SDS011;53654;54.152;19.432;2024-02-21T05:19:35;17.60;;;7.90;;
66741;SDS011;53654;54.152;19.432;2024-02-21T05:22:03;20.80;;;9.00;;
66741;SDS011;53654;54.152;19.432;2024-02-21T05:24:32;19.30;;;8.40;;
66741;SDS011;53654;54.152;19.432;2024-02-21T05:27:00;19.90;;;8.70;;
66741;SDS011;53654;54.152;19.432;2024-02-21T05:29:28;17.30;;;9.00;;
66741;SDS011;53654;54.152;19.432;2024-02-21T05:31:56;21.30;;;9.50;;
66741;SDS011;53654;54.152;19.432;2024-02-21T05:34:25;19.40;;;9.60;;
66741;SDS011;53654;54.152;19.432;2024-02-21T05:36:54;22.20;;;10.10;;
66741;SDS011;53654;54.152;19.432;2024-02-21T05:39:23;21.30;;;10.90;;
66741;SDS011;53654;54.152;19.432;2024-02-21T05:41:51;22.70;;;10.70;;
66741;SDS011;53654;54.152;19.432;2024-02-21T05:44:20;22.20;;;10.50;;
66741;SDS011;53654;54.152;19.432;2024-02-21T05:46:50;18.00;;;10.40;;
66741;SDS011;53654;54.152;19.432;2024-02-21T05:49:18;18.60;;;10.30;;
66741;SDS011;53654;54.152;19.432;2024-02-21T05:51:47;20.10;;;10.50;;
66741;SDS011;53654;54.152;19.432;2024-02-21T05:54:15;20.30;;;10.60;;
66741;SDS011;53654;54.152;19.432;2024-02-21T05:56:46;18.20;;;10.90;;
66741;SDS011;53654;54.152;19.432;2024-02-21T05:59:14;18.80;;;11.10;;
66741;SDS011;53654;54.152;19.432;2024-02-21T06:01:43;19.80;;;11.20;;
66741;SDS011;53654;54.152;19.432;2024-02-21T06:04:12;19.20;;;11.40;;
66741;SDS011;53654;54.152;19.432;2024-02-21T06:06:41;20.30;;;11.40;;
66741;SDS011;53654;54.152;19.432;2024-02-21T06:09:09;18.40;;;10.80;;
66741;SDS011;53654;54.152;19.432;2024-02-21T06:11:37;20.80;;;11.50;;
66741;SDS011;53654;54.152;19.432;2024-02-21T06:14:06;20.80;;;11.10;;
66741;SDS011;53654;54.152;19.432;2024-02-21T06:16:34;19.40;;;11.20;;
66741;SDS011;53654;54.152;19.432;2024-02-21T06:19:02;20.30;;;11.20;;
66741;SDS011;53654;54.152;19.432;2024-02-21T06:21:35;16.60;;;10.70;;
66741;SDS011;53654;54.152;19.432;2024-02-21T06:24:04;19.10;;;10.90;;
66741;SDS011;53654;54.152;19.432;2024-02-21T06:26:33;15.60;;;10.60;;
66741;SDS011;53654;54.152;19.432;2024-02-21T06:29:01;18.10;;;10.30;;
66741;SDS011;53654;54.152;19.432;2024-02-21T06:31:30;16.30;;;10.90;;
66741;SDS011;53654;54.152;19.432;2024-02-21T06:34:00;18.00;;;10.80;;
66741;SDS011;53654;54.152;19.432;2024-02-21T06:36:28;17.70;;;11.00;;
66741;SDS011;53654;54.152;19.432;2024-02-21T06:38:56;16.00;;;10.90;;
66741;SDS011;53654;54.152;19.432;2024-02-21T06:41:27;17.80;;;11.60;;
66741;SDS011;53654;54.152;19.432;2024-02-21T06:43:55;16.90;;;11.30;;
66741;SDS011;53654;54.152;19.432;2024-02-21T06:46:24;17.10;;;10.60;;
66741;SDS011;53654;54.152;19.432;2024-02-21T06:48:53;14.80;;;9.60;;
66741;SDS011;53654;54.152;19.432;2024-02-21T06:51:24;15.20;;;9.90;;
66741;SDS011;53654;54.152;19.432;2024-02-21T06:53:53;15.60;;;10.10;;
66741;SDS011;53654;54.152;19.432;2024-02-21T06:56:24;15.40;;;10.30;;
66741;SDS011;53654;54.152;19.432;2024-02-21T06:58:54;16.00;;;11.60;;
66741;SDS011;53654;54.152;19.432;2024-02-21T07:01:23;21.20;;;13.80;;
66741;SDS011;53654;54.152;19.432;2024-02-21T07:03:52;19.20;;;14.10;;
66741;SDS011;53654;54.152;19.432;2024-02-21T07:06:21;22.80;;;14.90;;
66741;SDS011;53654;54.152;19.432;2024-02-21T07:08:49;20.60;;;15.50;;
66741;SDS011;53654;54.152;19.432;2024-02-21T07:11:17;21.70;;;14.60;;
66741;SDS011;53654;54.152;19.432;2024-02-21T07:13:46;20.30;;;14.60;;
66741;SDS011;53654;54.152;19.432;2024-02-21T07:16:14;19.60;;;14.40;;
66741;SDS011;53654;54.152;19.432;2024-02-21T07:18:43;21.30;;;14.80;;
66741;SDS011;53654;54.152;19.432;2024-02-21T07:21:11;19.10;;;15.40;;
66741;SDS011;53654;54.152;19.432;2024-02-21T07:23:40;22.20;;;17.10;;
66741;SDS011;53654;54.152;19.432;2024-02-21T07:26:10;21.40;;;16.20;;
66741;SDS011;53654;54.152;19.432;2024-02-21T07:28:38;21.40;;;16.20;;
66741;SDS011;53654;54.152;19.432;2024-02-21T07:31:07;19.10;;;14.40;;
66741;SDS011;53654;54.152;19.432;2024-02-21T07:33:35;17.50;;;13.50;;
66741;SDS011;53654;54.152;19.432;2024-02-21T07:36:07;17.30;;;12.80;;
66741;SDS011;53654;54.152;19.432;2024-02-21T07:38:36;15.60;;;12.70;;
66741;SDS011;53654;54.152;19.432;2024-02-21T07:41:04;15.10;;;12.00;;
66741;SDS011;53654;54.152;19.432;2024-02-21T07:43:33;16.30;;;12.10;;
66741;SDS011;53654;54.152;19.432;2024-02-21T07:46:01;15.20;;;12.30;;
66741;SDS011;53654;54.152;19.432;2024-02-21T07:48:30;13.30;;;11.90;;
66741;SDS011;53654;54.152;19.432;2024-02-21T07:51:01;16.80;;;13.00;;
66741;SDS011;53654;54.152;19.432;2024-02-21T07:53:30;17.60;;;13.10;;
66741;SDS011;53654;54.152;19.432;2024-02-21T07:55:59;15.80;;;13.30;;
66741;SDS011;53654;54.152;19.432;2024-02-21T07:58:27;15.10;;;13.00;;
66741;SDS011;53654;54.152;19.432;2024-02-21T08:00:56;13.80;;;12.20;;
66741;SDS011;53654;54.152;19.432;2024-02-21T08:03:24;16.30;;;12.00;;
66741;SDS011;53654;54.152;19.432;2024-02-21T08:05:54;14.90;;;11.40;;
66741;SDS011;53654;54.152;19.432;2024-02-21T08:08:22;15.90;;;11.70;;
66741;SDS011;53654;54.152;19.432;2024-02-21T08:10:50;14.70;;;12.40;;
66741;SDS011;53654;54.152;19.432;2024-02-21T08:13:18;15.80;;;13.10;;
66741;SDS011;53654;54.152;19.432;2024-02-21T08:15:47;14.00;;;12.00;;
66741;SDS011;53654;54.152;19.432;2024-02-21T08:18:15;14.90;;;11.70;;
66741;SDS011;53654;54.152;19.432;2024-02-21T08:20:43;14.90;;;11.80;;
66741;SDS011;53654;54.152;19.432;2024-02-21T08:23:12;15.10;;;12.10;;
66741;SDS011;53654;54.152;19.432;2024-02-21T08:25:40;15.40;;;12.70;;
66741;SDS011;53654;54.152;19.432;2024-02-21T08:28:08;14.90;;;12.50;;
66741;SDS011;53654;54.152;19.432;2024-02-21T08:30:36;16.60;;;12.40;;
66741;SDS011;53654;54.152;19.432;2024-02-21T08:33:05;15.30;;;12.80;;
66741;SDS011;53654;54.152;19.432;2024-02-21T08:35:33;17.10;;;13.20;;
66741;SDS011;53654;54.152;19.432;2024-02-21T08:38:01;15.50;;;13.10;;
66741;SDS011;53654;54.152;19.432;2024-02-21T08:40:30;17.70;;;13.80;;
66741;SDS011;53654;54.152;19.432;2024-02-21T08:42:58;16.90;;;13.60;;
66741;SDS011;53654;54.152;19.432;2024-02-21T08:45:26;17.70;;;13.90;;
66741;SDS011;53654;54.152;19.432;2024-02-21T08:47:54;17.70;;;14.60;;
66741;SDS011;53654;54.152;19.432;2024-02-21T08:50:22;20.50;;;15.50;;
66741;SDS011;53654;54.152;19.432;2024-02-21T08:52:56;18.40;;;16.30;;
66741;SDS011;53654;54.152;19.432;2024-02-21T08:55:25;20.80;;;17.20;;
66741;SDS011;53654;54.152;19.432;2024-02-21T08:57:53;20.40;;;17.00;;
66741;SDS011;53654;54.152;19.432;2024-02-21T09:00:22;18.70;;;16.40;;
66741;SDS011;53654;54.152;19.432;2024-02-21T09:02:55;21.30;;;17.30;;
66741;SDS011;53654;54.152;19.432;2024-02-21T09:05:24;21.40;;;18.30;;
66741;SDS011;53654;54.152;19.432;2024-02-21T09:07:53;23.10;;;18.30;;
66741;SDS011;53654;54.152;19.432;2024-02-21T09:10:22;20.90;;;17.80;;
66741;SDS011;53654;54.152;19.432;2024-02-21T09:12:50;22.90;;;18.80;;
66741;SDS011;53654;54.152;19.432;2024-02-21T09:15:18;21.60;;;18.90;;
66741;SDS011;53654;54.152;19.432;2024-02-21T09:17:46;22.30;;;18.90;;
66741;SDS011;53654;54.152;19.432;2024-02-21T09:20:15;22.90;;;19.40;;
66741;SDS011;53654;54.152;19.432;2024-02-21T09:22:44;22.20;;;19.60;;
66741;SDS011;53654;54.152;19.432;2024-02-21T09:25:13;21.40;;;19.10;;
66741;SDS011;53654;54.152;19.432;2024-02-21T09:27:41;21.40;;;19.10;;
66741;SDS011;53654;54.152;19.432;2024-02-21T09:30:11;21.20;;;19.00;;
66741;SDS011;53654;54.152;19.432;2024-02-21T09:32:40;21.10;;;18.90;;
66741;SDS011;53654;54.152;19.432;2024-02-21T09:35:08;21.30;;;19.10;;
66741;SDS011;53654;54.152;19.432;2024-02-21T09:37:38;21.70;;;19.50;;
66741;SDS011;53654;54.152;19.432;2024-02-21T09:40:07;21.30;;;18.60;;
66741;SDS011;53654;54.152;19.432;2024-02-21T09:45:09;23.30;;;19.90;;
66741;SDS011;53654;54.152;19.432;2024-02-21T09:50:51;20.10;;;17.90;;
66741;SDS011;53654;54.152;19.432;2024-02-21T09:53:21;20.00;;;9.30;;
66741;SDS011;53654;54.152;19.432;2024-02-21T09:55:52;19.20;;;17.30;;
66741;SDS011;53654;54.152;19.432;2024-02-21T09:58:21;20.60;;;18.20;;
66741;SDS011;53654;54.152;19.432;2024-02-21T10:00:51;18.90;;;17.00;;
66741;SDS011;53654;54.152;19.432;2024-02-21T10:03:20;18.30;;;16.40;;
66741;SDS011;53654;54.152;19.432;2024-02-21T10:05:50;18.30;;;16.50;;
66741;SDS011;53654;54.152;19.432;2024-02-21T10:08:19;18.40;;;16.50;;
66741;SDS011;53654;54.152;19.432;2024-02-21T10:10:47;19.10;;;17.30;;
66741;SDS011;53654;54.152;19.432;2024-02-21T10:13:25;18.80;;;16.80;;
66741;SDS011;53654;54.152;19.432;2024-02-21T10:16:05;18.40;;;16.70;;
66741;SDS011;53654;54.152;19.432;2024-02-21T10:18:35;18.40;;;16.60;;
66741;SDS011;53654;54.152;19.432;2024-02-21T10:21:04;18.90;;;16.90;;
66741;SDS011;53654;54.152;19.432;2024-02-21T10:23:41;18.90;;;17.00;;
66741;SDS011;53654;54.152;19.432;2024-02-21T10:26:10;17.10;;;15.50;;
66741;SDS011;53654;54.152;19.432;2024-02-21T10:28:39;18.30;;;16.50;;
66741;SDS011;53654;54.152;19.432;2024-02-21T10:31:25;17.90;;;16.10;;
66741;SDS011;53654;54.152;19.432;2024-02-21T10:34:01;18.00;;;16.00;;
66741;SDS011;53654;54.152;19.432;2024-02-21T10:36:31;18.80;;;16.90;;
66741;SDS011;53654;54.152;19.432;2024-02-21T10:38:59;18.20;;;16.30;;
66741;SDS011;53654;54.152;19.432;2024-02-21T10:41:27;19.60;;;17.50;;
66741;SDS011;53654;54.152;19.432;2024-02-21T10:43:57;19.60;;;17.50;;
66741;SDS011;53654;54.152;19.432;2024-02-21T10:46:27;19.50;;;17.50;;
66741;SDS011;53654;54.152;19.432;2024-02-21T10:49:07;18.60;;;16.80;;
66741;SDS011;53654;54.152;19.432;2024-02-21T10:51:42;19.60;;;17.50;;
66741;SDS011;53654;54.152;19.432;2024-02-21T10:57:07;19.20;;;17.30;;
66741;SDS011;53654;54.152;19.432;2024-02-21T10:59:38;19.80;;;17.90;;
66741;SDS011;53654;54.152;19.432;2024-02-21T11:02:07;19.50;;;17.30;;
66741;SDS011;53654;54.152;19.432;2024-02-21T11:04:36;19.50;;;17.50;;
66741;SDS011;53654;54.152;19.432;2024-02-21T11:07:05;19.50;;;17.50;;
66741;SDS011;53654;54.152;19.432;2024-02-21T11:09:38;20.30;;;18.20;;
66741;SDS011;53654;54.152;19.432;2024-02-21T11:12:06;21.80;;;19.60;;
66741;SDS011;53654;54.152;19.432;2024-02-21T11:14:37;22.40;;;20.20;;
66741;SDS011;53654;54.152;19.432;2024-02-21T11:17:20;20.40;;;18.20;;
66741;SDS011;53654;54.152;19.432;2024-02-21T11:19:55;21.50;;;19.10;;
66741;SDS011;53654;54.152;19.432;2024-02-21T11:22:23;21.70;;;19.40;;
66741;SDS011;53654;54.152;19.432;2024-02-21T11:25:05;22.30;;;19.40;;
66741;SDS011;53654;54.152;19.432;2024-02-21T11:27:37;22.50;;;19.90;;
66741;SDS011;53654;54.152;19.432;2024-02-21T11:30:06;20.40;;;18.30;;
66741;SDS011;53654;54.152;19.432;2024-02-21T11:32:34;20.30;;;18.20;;
66741;SDS011;53654;54.152;19.432;2024-02-21T11:35:03;20.20;;;18.10;;
66741;SDS011;53654;54.152;19.432;2024-02-21T11:37:35;19.60;;;17.60;;
66741;SDS011;53654;54.152;19.432;2024-02-21T11:40:09;19.20;;;17.00;;
66741;SDS011;53654;54.152;19.432;2024-02-21T11:42:39;18.70;;;16.70;;
66741;SDS011;53654;54.152;19.432;2024-02-21T11:45:09;18.20;;;16.20;;
66741;SDS011;53654;54.152;19.432;2024-02-21T11:47:37;18.30;;;16.20;;
66741;SDS011;53654;54.152;19.432;2024-02-21T11:50:10;20.90;;;16.60;;
66741;SDS011;53654;54.152;19.432;2024-02-21T11:52:40;18.50;;;16.20;;
66741;SDS011;53654;54.152;19.432;2024-02-21T11:55:08;18.80;;;15.60;;
66741;SDS011;53654;54.152;19.432;2024-02-21T11:57:37;20.00;;;16.00;;
66741;SDS011;53654;54.152;19.432;2024-02-21T12:00:15;18.10;;;16.20;;
66741;SDS011;53654;54.152;19.432;2024-02-21T12:02:45;18.20;;;16.30;;
66741;SDS011;53654;54.152;19.432;2024-02-21T12:05:14;19.10;;;16.40;;
66741;SDS011;53654;54.152;19.432;2024-02-21T12:07:43;18.60;;;16.50;;
66741;SDS011;53654;54.152;19.432;2024-02-21T12:10:12;18.30;;;16.40;;
66741;SDS011;53654;54.152;19.432;2024-02-21T12:12:41;18.40;;;15.90;;
66741;SDS011;53654;54.152;19.432;2024-02-21T12:15:09;18.10;;;12.80;;
66741;SDS011;53654;54.152;19.432;2024-02-21T12:17:39;16.80;;;14.90;;
66741;SDS011;53654;54.152;19.432;2024-02-21T12:20:08;16.20;;;14.40;;
66741;SDS011;53654;54.152;19.432;2024-02-21T12:22:38;18.20;;;14.60;;
66741;SDS011;53654;54.152;19.432;2024-02-21T12:25:25;16.60;;;14.50;;
66741;SDS011;53654;54.152;19.432;2024-02-21T12:27:56;16.80;;;13.50;;
66741;SDS011;53654;54.152;19.432;2024-02-21T12:30:24;15.50;;;13.40;;
66741;SDS011;53654;54.152;19.432;2024-02-21T12:32:53;15.20;;;13.60;;
66741;SDS011;53654;54.152;19.432;2024-02-21T12:35:21;16.00;;;13.70;;
66741;SDS011;53654;54.152;19.432;2024-02-21T12:37:50;15.80;;;13.40;;
66741;SDS011;53654;54.152;19.432;2024-02-21T12:40:18;14.50;;;13.00;;
66741;SDS011;53654;54.152;19.432;2024-02-21T12:42:46;16.60;;;13.70;;
66741;SDS011;53654;54.152;19.432;2024-02-21T12:45:16;16.90;;;13.70;;
66741;SDS011;53654;54.152;19.432;2024-02-21T12:47:44;16.20;;;14.20;;
66741;SDS011;53654;54.152;19.432;2024-02-21T12:50:13;16.90;;;13.20;;
66741;SDS011;53654;54.152;19.432;2024-02-21T12:52:43;16.50;;;13.10;;
66741;SDS011;53654;54.152;19.432;2024-02-21T12:55:12;15.00;;;12.60;;
66741;SDS011;53654;54.152;19.432;2024-02-21T12:57:41;16.60;;;12.60;;
66741;SDS011;53654;54.152;19.432;2024-02-21T13:00:10;16.70;;;12.90;;
66741;SDS011;53654;54.152;19.432;2024-02-21T13:02:39;15.20;;;12.30;;
66741;SDS011;53654;54.152;19.432;2024-02-21T13:05:07;13.20;;;11.80;;
66741;SDS011;53654;54.152;19.432;2024-02-21T13:07:35;15.00;;;11.50;;
66741;SDS011;53654;54.152;19.432;2024-02-21T13:10:04;14.50;;;11.90;;
66741;SDS011;53654;54.152;19.432;2024-02-21T13:12:33;14.30;;;11.90;;
66741;SDS011;53654;54.152;19.432;2024-02-21T13:15:01;12.80;;;11.50;;
66741;SDS011;53654;54.152;19.432;2024-02-21T13:17:29;13.00;;;10.90;;
66741;SDS011;53654;54.152;19.432;2024-02-21T13:20:00;12.70;;;10.70;;
66741;SDS011;53654;54.152;19.432;2024-02-21T13:22:28;11.40;;;10.10;;
66741;SDS011;53654;54.152;19.432;2024-02-21T13:24:56;11.00;;;9.90;;
66741;SDS011;53654;54.152;19.432;2024-02-21T13:27:25;12.30;;;10.30;;
66741;SDS011;53654;54.152;19.432;2024-02-21T13:29:54;11.10;;;10.00;;
66741;SDS011;53654;54.152;19.432;2024-02-21T13:32:22;11.40;;;9.40;;
66741;SDS011;53654;54.152;19.432;2024-02-21T13:34:50;11.10;;;9.30;;
66741;SDS011;53654;54.152;19.432;2024-02-21T13:37:22;10.70;;;9.60;;
66741;SDS011;53654;54.152;19.432;2024-02-21T13:39:55;11.00;;;9.50;;
66741;SDS011;53654;54.152;19.432;2024-02-21T13:42:23;10.80;;;9.70;;
66741;SDS011;53654;54.152;19.432;2024-02-21T13:44:55;12.40;;;10.00;;
66741;SDS011;53654;54.152;19.432;2024-02-21T13:47:23;10.70;;;9.20;;
66741;SDS011;53654;54.152;19.432;2024-02-21T13:49:51;9.60;;;8.70;;
66741;SDS011;53654;54.152;19.432;2024-02-21T13:52:20;12.40;;;11.20;;
66741;SDS011;53654;54.152;19.432;2024-02-21T13:54:49;11.10;;;9.90;;
66741;SDS011;53654;54.152;19.432;2024-02-21T13:57:17;11.00;;;9.40;;
66741;SDS011;53654;54.152;19.432;2024-02-21T13:59:45;10.20;;;9.10;;
66741;SDS011;53654;54.152;19.432;2024-02-21T14:02:14;10.10;;;8.90;;
66741;SDS011;53654;54.152;19.432;2024-02-21T14:04:42;9.90;;;8.90;;
66741;SDS011;53654;54.152;19.432;2024-02-21T14:07:10;9.90;;;8.70;;
66741;SDS011;53654;54.152;19.432;2024-02-21T14:09:39;9.90;;;8.60;;
66741;SDS011;53654;54.152;19.432;2024-02-21T14:12:07;10.00;;;8.90;;
66741;SDS011;53654;54.152;19.432;2024-02-21T14:14:38;9.80;;;8.60;;
66741;SDS011;53654;54.152;19.432;2024-02-21T14:17:07;9.10;;;8.20;;
66741;SDS011;53654;54.152;19.432;2024-02-21T14:19:35;8.80;;;7.90;;
66741;SDS011;53654;54.152;19.432;2024-02-21T14:22:04;9.50;;;8.50;;
66741;SDS011;53654;54.152;19.432;2024-02-21T14:24:32;8.90;;;8.00;;
66741;SDS011;53654;54.152;19.432;2024-02-21T14:27:01;9.60;;;8.70;;
66741;SDS011;53654;54.152;19.432;2024-02-21T14:29:29;9.20;;;8.30;;
66741;SDS011;53654;54.152;19.432;2024-02-21T14:31:57;9.90;;;9.00;;
66741;SDS011;53654;54.152;19.432;2024-02-21T14:34:25;9.40;;;8.50;;
66741;SDS011;53654;54.152;19.432;2024-02-21T14:36:54;9.40;;;8.40;;